Time;durP1;ratioP1;P1;durP2;ratioP2;P2;SDS_P1;SDS_P2;PMS_P1;PMS_P2;Temp;Humidity;BMP_temperature;BMP_pressure;BME280_temperature;BME280_humidity;BME280_pressure;Samples;Min_cycle;Max_cycle;Signal;HPM_P1;HPM_P2
2023/05/08 00:01:51;;;;;;;3.45;1.70;;;12.80;99.90;;;;;;5040667;28;20392;-81
2023/05/08 00:04:19;;;;;;;3.72;2.00;;;12.80;99.90;;;;;;5073819;28;20480;-81
2023/05/08 00:06:45;;;;;;;3.50;1.83;;;12.70;99.90;;;;;;5072641;28;20489;-81
2023/05/08 00:09:11;;;;;;;4.90;1.70;;;12.60;99.90;;;;;;5074927;28;20377;-81
2023/05/08 00:11:37;;;;;;;3.95;1.63;;;12.60;99.90;;;;;;5071110;28;20374;-81
2023/05/08 00:14:03;;;;;;;3.92;1.75;;;12.60;99.90;;;;;;5056271;28;20078;-81
2023/05/08 00:16:30;;;;;;;2.50;1.80;;;12.50;99.90;;;;;;5068379;28;20044;-81
2023/05/08 00:18:55;;;;;;;2.60;1.90;;;12.50;99.90;;;;;;5058714;28;20465;-81
2023/05/08 00:21:21;;;;;;;3.42;2.00;;;12.40;99.90;;;;;;5057350;28;20032;-81
2023/05/08 00:23:47;;;;;;;3.20;1.73;;;12.40;99.90;;;;;;5045462;28;20033;-81
2023/05/08 00:26:12;;;;;;;4.32;1.90;;;12.30;99.90;;;;;;5051909;28;20035;-81
2023/05/08 00:28:38;;;;;;;2.80;1.58;;;12.30;99.90;;;;;;5060058;28;20111;-81
2023/05/08 00:31:04;;;;;;;3.83;2.20;;;12.30;99.90;;;;;;5057595;28;20485;-81
2023/05/08 00:33:29;;;;;;;4.32;1.83;;;12.20;99.90;;;;;;5041509;28;20032;-81
2023/05/08 00:36:02;;;;;;;2.70;1.50;;;12.20;99.90;;;;;;5028447;28;20029;-81
2023/05/08 00:38:35;;;;;;;3.15;1.90;;;12.10;99.90;;;;;;5058806;28;20373;-81
2023/05/08 00:41:01;;;;;;;6.45;2.47;;;12.10;99.90;;;;;;5072299;28;20021;-81
2023/05/08 00:43:28;;;;;;;5.32;2.35;;;12.10;99.90;;;;;;5055865;28;20393;-81
2023/05/08 00:45:55;;;;;;;3.50;2.08;;;12.20;99.90;;;;;;5076925;28;20050;-81
2023/05/08 00:48:25;;;;;;;5.03;2.10;;;12.20;99.90;;;;;;5056585;28;20057;-81
2023/05/08 00:50:52;;;;;;;2.63;1.90;;;12.10;99.90;;;;;;5077885;28;20396;-81
2023/05/08 00:53:22;;;;;;;4.10;2.05;;;12.00;99.90;;;;;;5068368;28;20025;-81
2023/05/08 00:55:50;;;;;;;2.92;1.98;;;12.00;99.90;;;;;;5059643;28;20028;-81
2023/05/08 00:58:16;;;;;;;3.90;2.22;;;11.90;99.90;;;;;;5060045;28;20046;-81
2023/05/08 01:00:44;;;;;;;4.70;2.20;;;12.00;99.90;;;;;;5059285;28;20056;-81
2023/05/08 01:03:10;;;;;;;3.63;2.15;;;12.00;99.90;;;;;;5042731;28;20078;-81
2023/05/08 01:05:37;;;;;;;4.13;1.95;;;12.00;99.90;;;;;;5047622;28;20047;-81
2023/05/08 01:08:03;;;;;;;6.10;2.15;;;12.00;99.90;;;;;;5048482;28;20362;-81
2023/05/08 01:11:02;;;;;;;4.05;2.10;;;12.00;99.90;;;;;;5049961;28;20035;-81
2023/05/08 01:14:03;;;;;;;3.58;2.17;;;12.10;99.90;;;;;;5027179;28;20516;-81
2023/05/08 01:16:44;;;;;;;3.13;2.13;;;12.10;99.90;;;;;;5029932;28;20048;-81
2023/05/08 01:19:48;;;;;;;3.50;2.38;;;12.10;99.90;;;;;;5076817;28;20040;-81
2023/05/08 01:23:01;;;;;;;3.08;2.00;;;12.00;99.90;;;;;;5065517;28;20032;-81
2023/05/08 01:25:39;;;;;;;5.18;2.20;;;12.00;99.90;;;;;;5057825;28;20401;-81
2023/05/08 01:28:38;;;;;;;4.45;2.30;;;12.00;99.90;;;;;;5057105;28;20472;-81
2023/05/08 01:31:11;;;;;;;4.05;2.33;;;12.00;99.90;;;;;;5047343;28;20021;-81
2023/05/08 01:33:50;;;;;;;4.30;2.00;;;12.00;99.90;;;;;;5058128;28;20392;-81
2023/05/08 01:36:21;;;;;;;5.10;2.50;;;12.00;99.90;;;;;;5056971;28;20067;-81
2023/05/08 01:38:56;;;;;;;5.65;2.10;;;11.90;99.90;;;;;;5065709;28;20029;-81
2023/05/08 01:41:29;;;;;;;2.70;1.95;;;11.90;99.90;;;;;;5085954;28;20508;-81
2023/05/08 01:43:58;;;;;;;4.10;2.10;;;11.90;99.90;;;;;;5079869;28;20032;-81
2023/05/08 01:46:26;;;;;;;3.95;2.00;;;11.90;99.90;;;;;;5049826;28;20124;-81
2023/05/08 01:49:07;;;;;;;2.67;1.95;;;11.90;99.90;;;;;;5070635;28;20040;-81
2023/05/08 01:52:04;;;;;;;2.70;1.85;;;11.90;99.90;;;;;;5069745;28;20017;-81
2023/05/08 01:54:35;;;;;;;3.65;1.95;;;11.90;99.90;;;;;;5064754;28;20040;-81
2023/05/08 01:57:03;;;;;;;4.78;2.13;;;12.00;99.90;;;;;;5054605;28;20519;-81
2023/05/08 01:59:32;;;;;;;2.72;2.08;;;12.00;99.90;;;;;;5071975;28;20026;-81
2023/05/08 02:02:00;;;;;;;5.60;2.22;;;12.00;99.90;;;;;;5055853;28;20016;-80
2023/05/08 02:04:27;;;;;;;3.83;2.70;;;12.00;99.90;;;;;;5058437;28;20025;-81
2023/05/08 02:06:54;;;;;;;3.63;2.30;;;12.00;99.90;;;;;;5017607;28;20037;-81
2023/05/08 02:09:22;;;;;;;3.92;2.40;;;12.00;99.90;;;;;;5038469;28;20040;-81
2023/05/08 02:11:49;;;;;;;3.45;2.15;;;11.90;99.90;;;;;;5056400;28;20052;-81
2023/05/08 02:14:18;;;;;;;3.47;2.28;;;11.90;99.90;;;;;;5067151;28;20016;-81
2023/05/08 02:16:46;;;;;;;3.10;2.38;;;12.00;99.90;;;;;;5068070;28;20028;-81
2023/05/08 02:19:14;;;;;;;4.50;2.40;;;11.90;99.90;;;;;;5052715;28;20064;-81
2023/05/08 02:21:40;;;;;;;3.40;2.42;;;11.90;99.90;;;;;;5044196;28;20090;-81
2023/05/08 02:24:07;;;;;;;5.53;2.83;;;11.90;99.90;;;;;;5058346;28;20217;-81
2023/05/08 02:26:34;;;;;;;4.85;3.03;;;11.90;99.90;;;;;;5074784;28;20036;-81
2023/05/08 02:29:02;;;;;;;4.70;2.83;;;11.90;99.90;;;;;;5070131;28;20024;-81
2023/05/08 02:31:28;;;;;;;5.55;2.90;;;11.80;99.90;;;;;;5057342;28;20426;-81
2023/05/08 02:33:56;;;;;;;7.88;3.80;;;11.80;99.90;;;;;;5068726;28;20048;-81
2023/05/08 02:36:23;;;;;;;4.45;3.35;;;11.80;99.90;;;;;;5057536;28;20032;-81
2023/05/08 02:38:53;;;;;;;7.78;3.90;;;11.80;99.90;;;;;;5053454;28;20032;-81
2023/05/08 02:41:24;;;;;;;7.32;4.15;;;11.80;99.90;;;;;;5075621;28;20066;-81
2023/05/08 02:43:51;;;;;;;7.10;3.53;;;11.70;99.90;;;;;;5056853;28;20024;-81
2023/05/08 02:46:36;;;;;;;5.75;3.53;;;11.70;99.90;;;;;;5040765;28;20041;-80
2023/05/08 02:49:15;;;;;;;6.40;3.42;;;11.70;99.90;;;;;;5047471;28;20053;-81
2023/05/08 02:52:10;;;;;;;8.10;3.80;;;11.70;99.90;;;;;;5056615;28;20031;-81
2023/05/08 02:54:54;;;;;;;4.70;3.05;;;11.70;99.90;;;;;;5062424;28;20063;-81
2023/05/08 02:57:57;;;;;;;5.95;3.20;;;11.70;99.90;;;;;;5037460;28;20500;-81
2023/05/08 03:00:29;;;;;;;5.57;3.10;;;11.70;99.90;;;;;;5072145;28;20033;-80
2023/05/08 03:03:14;;;;;;;4.70;2.92;;;11.70;99.90;;;;;;5057912;28;20012;-80
2023/05/08 03:05:45;;;;;;;4.78;2.50;;;11.70;99.90;;;;;;5056981;28;20038;-81
2023/05/08 03:08:16;;;;;;;3.28;2.10;;;11.70;99.90;;;;;;5063434;28;20037;-80
2023/05/08 03:10:44;;;;;;;3.80;1.63;;;11.70;99.90;;;;;;5055935;28;20473;-80
2023/05/08 03:13:12;;;;;;;3.75;1.70;;;11.70;99.90;;;;;;5050055;28;20095;-80
2023/05/08 03:15:51;;;;;;;12.13;2.55;;;11.70;99.90;;;;;;5049320;28;20052;-81
2023/05/08 03:18:19;;;;;;;4.00;1.80;;;11.60;99.90;;;;;;5047393;28;20028;-81
2023/05/08 03:20:52;;;;;;;2.80;2.13;;;11.60;99.90;;;;;;5071294;28;20067;-81
2023/05/08 03:23:20;;;;;;;4.85;2.45;;;11.60;99.90;;;;;;5075111;28;20020;-81
2023/05/08 03:25:46;;;;;;;3.40;2.55;;;11.60;99.90;;;;;;5053630;28;20028;-81
2023/05/08 03:28:13;;;;;;;4.38;2.60;;;11.60;99.90;;;;;;5053674;28;20087;-81
2023/05/08 03:30:40;;;;;;;5.03;2.78;;;11.60;99.90;;;;;;5069936;28;20020;-81
2023/05/08 03:33:07;;;;;;;3.50;2.70;;;11.60;99.90;;;;;;5037028;28;20445;-82
2023/05/08 03:35:37;;;;;;;5.05;2.78;;;11.60;99.90;;;;;;5055455;28;20024;-78
2023/05/08 03:38:04;;;;;;;4.28;2.70;;;11.70;99.90;;;;;;5072364;28;20043;-77
2023/05/08 03:40:35;;;;;;;3.60;2.78;;;11.70;99.90;;;;;;5058629;28;20022;-77
2023/05/08 03:43:01;;;;;;;3.20;2.40;;;11.70;99.90;;;;;;5057568;28;20033;-78
2023/05/08 03:45:28;;;;;;;3.55;2.10;;;11.70;99.90;;;;;;5070566;28;20036;-78
2023/05/08 03:47:54;;;;;;;3.30;2.05;;;11.70;99.90;;;;;;5058481;28;20488;-77
2023/05/08 03:50:21;;;;;;;3.38;1.98;;;11.70;99.90;;;;;;5082084;28;20103;-77
2023/05/08 03:52:47;;;;;;;3.47;2.40;;;11.60;99.90;;;;;;5077059;28;20120;-76
2023/05/08 03:55:13;;;;;;;3.97;2.80;;;11.60;99.90;;;;;;5054844;28;20579;-77
2023/05/08 03:57:59;;;;;;;2.53;1.80;;;11.60;99.90;;;;;;5055744;28;20048;-77
2023/05/08 04:00:35;;;;;;;2.70;2.03;;;11.60;99.90;;;;;;5058275;28;20024;-77
2023/05/08 04:03:14;;;;;;;3.17;2.05;;;11.60;99.90;;;;;;5057441;28;20456;-77
2023/05/08 04:06:10;;;;;;;3.97;2.67;;;11.70;99.90;;;;;;5062042;28;20027;-77
2023/05/08 04:08:43;;;;;;;3.05;2.33;;;11.70;99.90;;;;;;5076487;28;20198;-77
2023/05/08 04:11:24;;;;;;;3.67;2.53;;;11.70;99.90;;;;;;5075677;28;20440;-77
2023/05/08 04:13:56;;;;;;;3.10;2.13;;;11.80;99.90;;;;;;5045229;28;20033;-77
2023/05/08 04:16:25;;;;;;;4.68;2.35;;;11.80;99.90;;;;;;5070560;28;20032;-77
2023/05/08 04:18:58;;;;;;;5.55;2.28;;;11.80;99.90;;;;;;5073826;28;20495;-77
2023/05/08 04:21:24;;;;;;;3.45;2.20;;;11.80;99.90;;;;;;5069212;28;20025;-78
2023/05/08 04:23:52;;;;;;;4.78;2.40;;;11.80;99.90;;;;;;5074908;28;20022;-77
2023/05/08 04:26:18;;;;;;;4.85;2.63;;;11.80;99.90;;;;;;5071712;28;20033;-77
2023/05/08 04:28:45;;;;;;;4.00;2.70;;;11.90;99.90;;;;;;5076656;28;20553;-76
2023/05/08 04:31:16;;;;;;;5.03;3.05;;;11.90;99.90;;;;;;5050209;28;20488;-77
2023/05/08 04:33:45;;;;;;;9.20;5.05;;;11.90;99.90;;;;;;5075556;28;20430;-77
2023/05/08 04:36:13;;;;;;;23.63;15.82;;;11.90;99.90;;;;;;5053932;28;20487;-77
2023/05/08 04:38:39;;;;;;;13.15;8.00;;;11.90;99.90;;;;;;5060745;28;20032;-77
2023/05/08 04:41:06;;;;;;;6.80;5.50;;;11.90;99.90;;;;;;5072344;28;20029;-77
2023/05/08 04:43:32;;;;;;;5.90;3.78;;;11.90;99.90;;;;;;5044937;28;20036;-77
2023/05/08 04:45:57;;;;;;;4.60;3.28;;;11.90;99.90;;;;;;5051267;28;20420;-77
2023/05/08 04:48:23;;;;;;;5.20;2.80;;;11.90;99.90;;;;;;5062613;28;20048;-79
2023/05/08 04:50:49;;;;;;;3.65;2.80;;;11.90;99.90;;;;;;5041526;28;20024;-77
2023/05/08 04:53:15;;;;;;;3.90;2.28;;;11.90;99.90;;;;;;5073500;28;20051;-78
2023/05/08 04:55:40;;;;;;;3.15;2.28;;;11.90;99.90;;;;;;5071191;28;20063;-77
2023/05/08 04:58:06;;;;;;;3.40;2.28;;;11.90;99.90;;;;;;5053499;28;20797;-77
2023/05/08 05:00:33;;;;;;;4.45;2.38;;;11.90;99.90;;;;;;5070194;28;20020;-78
2023/05/08 05:02:59;;;;;;;3.20;2.00;;;11.90;99.90;;;;;;5064115;28;20092;-77
2023/05/08 05:05:24;;;;;;;5.22;2.60;;;11.90;99.90;;;;;;5054564;28;20108;-78
2023/05/08 05:07:50;;;;;;;4.10;2.72;;;12.00;99.90;;;;;;5053021;28;20040;-77
2023/05/08 05:10:16;;;;;;;4.68;2.40;;;12.00;99.90;;;;;;5060137;28;20029;-79
2023/05/08 05:12:41;;;;;;;2.75;2.10;;;11.90;99.90;;;;;;5071804;28;20141;-78
2023/05/08 05:15:07;;;;;;;4.47;2.80;;;12.00;99.90;;;;;;5056121;28;20484;-77
2023/05/08 05:17:34;;;;;;;3.97;2.72;;;11.90;99.90;;;;;;5059529;28;20028;-77
2023/05/08 05:19:59;;;;;;;5.22;3.15;;;11.90;99.90;;;;;;5070055;28;20051;-78
2023/05/08 05:22:26;;;;;;;8.93;5.72;;;11.90;99.90;;;;;;5070690;28;20028;-77
2023/05/08 05:24:52;;;;;;;25.83;14.75;;;11.90;99.90;;;;;;5061971;28;20044;-77
2023/05/08 05:27:18;;;;;;;18.73;10.90;;;11.90;99.90;;;;;;5054204;28;20029;-77
2023/05/08 05:29:43;;;;;;;6.93;4.30;;;11.90;99.90;;;;;;5055315;28;20029;-77
2023/05/08 05:32:10;;;;;;;8.02;4.22;;;11.90;99.90;;;;;;5055504;28;20031;-77
2023/05/08 05:34:36;;;;;;;9.20;5.47;;;11.90;99.90;;;;;;5055310;28;20072;-77
2023/05/08 05:37:01;;;;;;;9.35;5.13;;;11.90;99.90;;;;;;5055569;28;20424;-77
2023/05/08 05:39:27;;;;;;;7.07;4.50;;;11.90;99.90;;;;;;5056594;28;20088;-77
2023/05/08 05:41:53;;;;;;;6.50;4.05;;;12.00;99.90;;;;;;5073851;28;20056;-79
2023/05/08 05:44:18;;;;;;;4.75;3.22;;;12.00;99.90;;;;;;5065462;28;20033;-77
2023/05/08 05:46:44;;;;;;;3.78;2.70;;;12.10;99.90;;;;;;5060456;28;20027;-77
2023/05/08 05:49:11;;;;;;;3.30;2.28;;;12.10;99.90;;;;;;5064952;28;20051;-77
2023/05/08 05:51:36;;;;;;;4.15;2.05;;;12.20;99.90;;;;;;5070700;28;20025;-78
2023/05/08 05:54:02;;;;;;;3.10;2.45;;;12.20;99.90;;;;;;5075350;28;20024;-77
2023/05/08 05:56:28;;;;;;;4.43;2.13;;;12.20;99.90;;;;;;5075226;28;20471;-77
2023/05/08 05:58:53;;;;;;;3.40;2.30;;;12.30;99.90;;;;;;5070253;28;20015;-77
2023/05/08 06:01:19;;;;;;;4.03;2.13;;;12.30;99.90;;;;;;5070927;28;20029;-77
2023/05/08 06:03:46;;;;;;;3.22;2.00;;;12.30;99.90;;;;;;5075091;28;20029;-77
2023/05/08 06:06:12;;;;;;;3.33;2.17;;;12.40;99.90;;;;;;5073422;28;20035;-77
2023/05/08 06:08:37;;;;;;;3.80;2.38;;;12.40;99.90;;;;;;5074822;28;20361;-77
2023/05/08 06:11:03;;;;;;;2.60;1.98;;;12.40;99.90;;;;;;5074677;28;20484;-77
2023/05/08 06:13:29;;;;;;;6.03;2.30;;;12.40;99.90;;;;;;5075171;28;20043;-77
2023/05/08 06:15:58;;;;;;;8.68;3.08;;;12.40;99.90;;;;;;5073261;28;20031;-77
2023/05/08 06:18:23;;;;;;;3.72;2.38;;;12.40;99.90;;;;;;5074579;28;20047;-77
2023/05/08 06:20:57;;;;;;;3.55;2.28;;;12.30;99.90;;;;;;5056134;28;20088;-78
2023/05/08 06:23:22;;;;;;;3.80;2.40;;;12.40;99.90;;;;;;5063601;28;20418;-78
2023/05/08 06:25:48;;;;;;;5.63;2.70;;;12.40;99.90;;;;;;5065854;28;20108;-78
2023/05/08 06:28:14;;;;;;;4.07;2.63;;;12.40;99.90;;;;;;5073060;28;20025;-77
2023/05/08 06:30:40;;;;;;;6.13;3.10;;;12.40;99.90;;;;;;5071995;28;20024;-78
2023/05/08 06:33:05;;;;;;;4.80;2.30;;;12.40;99.90;;;;;;5071081;28;20103;-77
2023/05/08 06:35:31;;;;;;;5.72;2.72;;;12.40;99.90;;;;;;5068387;28;20056;-78
2023/05/08 06:37:56;;;;;;;2.90;2.10;;;12.50;99.90;;;;;;5063479;28;20108;-77
2023/05/08 06:40:22;;;;;;;3.47;2.45;;;12.50;99.90;;;;;;5072947;28;20021;-77
2023/05/08 06:42:48;;;;;;;4.85;2.83;;;12.60;99.90;;;;;;5073040;28;20111;-77
2023/05/08 06:45:14;;;;;;;5.38;3.45;;;12.60;99.90;;;;;;5074497;28;20025;-77
2023/05/08 06:47:40;;;;;;;5.30;3.42;;;12.70;99.90;;;;;;5074247;28;20477;-77
2023/05/08 06:50:06;;;;;;;5.45;3.63;;;12.70;99.90;;;;;;5073833;28;20086;-77
2023/05/08 06:52:32;;;;;;;4.45;3.42;;;12.80;99.90;;;;;;5074407;28;20461;-77
2023/05/08 06:54:57;;;;;;;4.63;3.50;;;12.90;99.90;;;;;;5072768;28;20043;-77
2023/05/08 06:57:25;;;;;;;5.32;3.30;;;12.90;99.90;;;;;;5074072;28;20017;-77
2023/05/08 06:59:52;;;;;;;5.00;3.00;;;13.00;99.90;;;;;;5074296;28;20016;-77
2023/05/08 07:02:18;;;;;;;4.55;3.20;;;13.00;99.90;;;;;;5045614;28;20032;-77
2023/05/08 07:04:44;;;;;;;4.80;3.40;;;13.10;99.90;;;;;;5071441;28;20028;-77
2023/05/08 07:07:10;;;;;;;5.25;3.35;;;13.10;99.90;;;;;;5063498;28;20496;-77
2023/05/08 07:09:36;;;;;;;6.40;4.03;;;13.20;99.90;;;;;;5063927;28;20028;-77
2023/05/08 07:12:01;;;;;;;4.45;3.00;;;13.20;99.90;;;;;;5061563;28;20028;-77
2023/05/08 07:14:27;;;;;;;6.03;3.90;;;13.30;99.90;;;;;;5056524;28;20175;-78
2023/05/08 07:16:53;;;;;;;6.60;3.70;;;13.40;99.90;;;;;;5051492;28;20040;-78
2023/05/08 07:19:19;;;;;;;4.72;3.35;;;13.40;99.90;;;;;;5062842;28;20025;-77
2023/05/08 07:21:45;;;;;;;5.22;3.67;;;13.40;99.90;;;;;;5072399;28;20028;-77
2023/05/08 07:24:10;;;;;;;6.60;3.80;;;13.40;99.90;;;;;;5071391;28;20021;-78
2023/05/08 07:26:36;;;;;;;9.60;4.32;;;13.50;99.90;;;;;;5064716;28;20505;-77
2023/05/08 07:29:02;;;;;;;6.57;3.92;;;13.50;99.90;;;;;;5062994;28;20074;-77
2023/05/08 07:31:27;;;;;;;8.98;3.72;;;13.60;99.90;;;;;;5043920;28;20079;-77
2023/05/08 07:33:53;;;;;;;5.15;3.60;;;13.60;99.90;;;;;;5054199;28;20025;-77
2023/05/08 07:36:19;;;;;;;4.97;3.38;;;13.70;99.90;;;;;;5058419;28;20079;-77
2023/05/08 07:38:45;;;;;;;5.63;3.47;;;13.80;99.90;;;;;;5053766;28;20033;-77
2023/05/08 07:41:10;;;;;;;5.00;3.42;;;13.90;99.90;;;;;;5053561;28;20147;-77
2023/05/08 07:43:36;;;;;;;7.10;3.38;;;14.00;99.90;;;;;;5050527;28;20159;-77
2023/05/08 07:46:02;;;;;;;8.82;4.00;;;14.10;99.90;;;;;;5047007;28;20024;-78
2023/05/08 07:48:28;;;;;;;7.30;3.80;;;14.10;99.90;;;;;;5066551;28;20473;-77
2023/05/08 07:50:53;;;;;;;6.45;3.63;;;14.20;99.90;;;;;;5065404;28;20063;-78
2023/05/08 07:53:19;;;;;;;6.80;3.67;;;14.20;99.90;;;;;;5063583;28;20028;-77
2023/05/08 07:55:45;;;;;;;5.45;3.83;;;14.30;99.90;;;;;;5066977;28;20032;-77
2023/05/08 07:58:10;;;;;;;8.00;4.13;;;14.30;99.90;;;;;;5064860;28;20469;-77
2023/05/08 08:00:36;;;;;;;6.25;3.55;;;14.30;99.90;;;;;;5059502;28;20477;-77
2023/05/08 08:03:03;;;;;;;9.55;4.28;;;14.30;99.90;;;;;;5073452;28;20391;-77
2023/05/08 08:05:28;;;;;;;6.22;4.40;;;14.40;99.90;;;;;;5063981;28;20025;-77
2023/05/08 08:07:54;;;;;;;9.10;4.82;;;14.40;99.90;;;;;;5058644;28;20040;-77
2023/05/08 08:10:19;;;;;;;8.85;4.45;;;14.40;99.90;;;;;;5066511;28;20497;-77
2023/05/08 08:12:45;;;;;;;7.40;4.40;;;14.50;99.90;;;;;;5045959;28;20028;-78
2023/05/08 08:15:11;;;;;;;12.07;4.95;;;14.50;99.90;;;;;;5063588;28;20025;-77
2023/05/08 08:17:36;;;;;;;6.80;4.20;;;14.60;99.90;;;;;;5056199;28;20025;-77
2023/05/08 08:20:02;;;;;;;6.15;4.22;;;14.70;99.90;;;;;;5053396;28;20071;-77
2023/05/08 08:22:28;;;;;;;5.25;4.38;;;14.80;99.90;;;;;;5053531;28;20017;-76
2023/05/08 08:24:54;;;;;;;7.80;4.25;;;14.80;99.90;;;;;;5053833;28;20040;-77
2023/05/08 08:27:20;;;;;;;5.55;4.07;;;14.90;99.90;;;;;;5053239;28;20362;-77
2023/05/08 08:29:46;;;;;;;5.78;3.58;;;15.00;99.90;;;;;;5053350;28;20032;-77
2023/05/08 08:32:12;;;;;;;7.30;3.88;;;15.20;99.90;;;;;;5054488;28;20040;-77
2023/05/08 08:34:37;;;;;;;8.90;3.85;;;15.30;99.90;;;;;;5056855;28;20036;-77
2023/05/08 08:37:06;;;;;;;7.50;4.10;;;15.40;99.90;;;;;;5057254;28;20029;-77
2023/05/08 08:39:33;;;;;;;7.47;4.60;;;15.50;99.90;;;;;;5056784;28;20095;-77
2023/05/08 08:41:59;;;;;;;7.95;4.47;;;15.50;99.90;;;;;;5055527;28;20110;-77
2023/05/08 08:44:25;;;;;;;6.50;3.97;;;15.60;99.90;;;;;;5083309;28;20055;-77
2023/05/08 08:46:51;;;;;;;6.05;3.60;;;15.70;99.90;;;;;;5078463;28;20453;-76
2023/05/08 08:49:21;;;;;;;5.72;3.80;;;15.80;99.90;;;;;;5096532;28;20031;-77
2023/05/08 08:51:54;;;;;;;5.90;3.95;;;15.90;99.90;;;;;;5096614;28;20099;-77
2023/05/08 08:54:22;;;;;;;5.25;3.35;;;16.10;99.90;;;;;;5096749;28;20023;-77
2023/05/08 08:56:50;;;;;;;5.57;3.70;;;16.30;99.90;;;;;;5096576;28;20415;-77
2023/05/08 08:59:17;;;;;;;5.97;4.07;;;16.40;99.90;;;;;;5096280;28;20468;-77
2023/05/08 09:01:50;;;;;;;5.13;4.15;;;16.50;99.90;;;;;;5096460;28;20028;-77
2023/05/08 09:04:16;;;;;;;7.88;4.32;;;16.70;99.90;;;;;;5096356;28;20024;-77
2023/05/08 09:06:44;;;;;;;7.43;4.38;;;16.80;99.90;;;;;;5096049;28;20051;-77
2023/05/08 09:09:12;;;;;;;9.43;4.10;;;16.90;99.90;;;;;;5078481;28;20028;-77
2023/05/08 09:11:39;;;;;;;5.75;3.88;;;17.00;99.90;;;;;;5096183;28;20025;-77
2023/05/08 09:14:05;;;;;;;6.15;4.25;;;17.10;99.90;;;;;;5085250;28;20070;-77
2023/05/08 09:16:30;;;;;;;10.30;4.45;;;17.40;99.90;;;;;;5074346;28;20029;-77
2023/05/08 09:18:56;;;;;;;5.38;3.85;;;17.70;99.90;;;;;;5074800;28;20436;-77
2023/05/08 09:21:22;;;;;;;6.65;4.25;;;17.90;99.90;;;;;;5075812;28;20099;-77
2023/05/08 09:24:02;;;;;;;5.72;4.10;;;18.00;99.90;;;;;;5075932;28;20053;-77
2023/05/08 09:26:34;;;;;;;6.57;4.50;;;18.10;99.90;;;;;;5075843;28;20119;-77
2023/05/08 09:29:14;;;;;;;6.00;4.20;;;18.20;99.90;;;;;;5075543;28;20040;-77
2023/05/08 09:31:42;;;;;;;8.38;5.05;;;18.30;99.90;;;;;;5075644;28;20056;-77
2023/05/08 09:34:09;;;;;;;7.47;4.75;;;18.20;99.90;;;;;;5075580;28;20470;-77
2023/05/08 09:36:36;;;;;;;5.45;4.72;;;18.10;99.90;;;;;;5075583;28;20029;-77
2023/05/08 09:39:02;;;;;;;6.88;4.70;;;18.10;99.90;;;;;;5075543;28;20070;-77
2023/05/08 09:41:28;;;;;;;6.15;4.13;;;18.00;99.90;;;;;;5075689;28;20078;-77
2023/05/08 09:44:04;;;;;;;4.80;3.47;;;18.10;99.90;;;;;;5083979;28;20411;-77
2023/05/08 09:46:32;;;;;;;4.07;3.05;;;18.20;99.90;;;;;;5095758;28;20093;-77
2023/05/08 09:49:00;;;;;;;5.53;3.80;;;18.50;99.90;;;;;;5077159;28;20024;-77
2023/05/08 09:51:28;;;;;;;4.60;3.17;;;18.70;99.90;;;;;;5077369;28;20040;-77
2023/05/08 09:53:56;;;;;;;5.07;3.30;;;18.90;99.90;;;;;;5095167;28;20035;-77
2023/05/08 09:56:35;;;;;;;5.32;3.88;;;19.10;99.90;;;;;;5095086;28;20021;-77
2023/05/08 09:59:03;;;;;;;7.18;4.50;;;19.10;99.90;;;;;;5095082;28;20051;-77
2023/05/08 10:01:35;;;;;;;5.13;3.28;;;19.30;99.90;;;;;;5095002;28;20492;-77
2023/05/08 10:04:02;;;;;;;6.03;3.42;;;19.20;99.90;;;;;;5077477;28;20024;-77
2023/05/08 10:06:29;;;;;;;6.47;3.53;;;19.20;99.90;;;;;;5095201;28;20479;-77
2023/05/08 10:09:09;;;;;;;11.82;3.20;;;19.30;99.90;;;;;;5095733;28;20028;-77
2023/05/08 10:11:35;;;;;;;4.50;3.17;;;19.40;99.90;;;;;;5095267;28;20073;-77
2023/05/08 10:14:00;;;;;;;5.45;2.97;;;19.60;99.90;;;;;;5084724;28;20025;-77
2023/05/08 10:16:28;;;;;;;5.30;3.63;;;19.80;99.90;;;;;;5074524;28;20029;-77
2023/05/08 10:19:01;;;;;;;4.03;3.15;;;19.80;99.90;;;;;;5074704;28;20078;-77
2023/05/08 10:21:34;;;;;;;5.38;3.15;;;19.90;99.90;;;;;;5074842;28;20380;-76
2023/05/08 10:24:05;;;;;;;4.13;3.05;;;20.10;99.90;;;;;;5056685;28;20126;-77
2023/05/08 10:26:32;;;;;;;4.00;2.60;;;20.20;99.90;;;;;;5074626;28;20380;-77
2023/05/08 10:29:06;;;;;;;4.13;2.53;;;20.20;99.90;;;;;;5074188;28;20388;-77
2023/05/08 10:31:34;;;;;;;3.65;2.53;;;20.10;99.90;;;;;;5056303;28;20376;-77
2023/05/08 10:34:01;;;;;;;5.68;2.60;;;20.20;99.80;;;;;;5074046;28;20118;-76
2023/05/08 10:36:28;;;;;;;6.53;3.00;;;20.10;99.90;;;;;;5074122;28;20396;-77
2023/05/08 10:38:57;;;;;;;4.78;2.60;;;20.00;99.90;;;;;;5072687;28;20035;-77
2023/05/08 10:41:23;;;;;;;3.78;2.53;;;20.10;99.90;;;;;;5072775;28;20035;-77
2023/05/08 10:43:49;;;;;;;3.90;2.75;;;20.10;99.90;;;;;;5074042;28;20020;-77
2023/05/08 10:46:30;;;;;;;3.05;2.45;;;20.10;99.90;;;;;;5074114;28;20055;-77
2023/05/08 10:49:17;;;;;;;3.90;2.38;;;20.20;99.90;;;;;;5074007;28;20056;-77
2023/05/08 10:52:15;;;;;;;3.47;2.42;;;20.20;99.90;;;;;;5073967;28;20030;-77
2023/05/08 10:55:03;;;;;;;4.68;2.35;;;20.30;99.90;;;;;;5073165;28;20464;-77
2023/05/08 10:57:29;;;;;;;3.13;2.15;;;20.40;99.90;;;;;;5073732;28;20069;-77
2023/05/08 10:59:54;;;;;;;3.08;2.40;;;20.50;99.90;;;;;;5073554;28;20062;-77
2023/05/08 11:02:28;;;;;;;4.00;2.75;;;20.50;99.90;;;;;;5073848;28;20056;-77
2023/05/08 11:04:55;;;;;;;5.68;2.80;;;20.50;99.90;;;;;;5074276;28;20024;-76
2023/05/08 11:07:49;;;;;;;5.10;3.58;;;20.50;99.90;;;;;;5072171;28;20033;-77
2023/05/08 11:10:15;;;;;;;4.75;3.13;;;20.40;99.90;;;;;;5073573;28;20021;-77
2023/05/08 11:12:49;;;;;;;5.70;2.90;;;20.40;99.90;;;;;;5055886;28;20602;-77
2023/05/08 11:15:14;;;;;;;5.20;3.00;;;20.40;99.90;;;;;;5073481;28;20528;-76
2023/05/08 11:17:45;;;;;;;4.75;2.90;;;20.50;99.90;;;;;;5073775;28;20066;-77
2023/05/08 11:20:11;;;;;;;4.68;2.15;;;20.70;99.90;;;;;;5072773;28;20024;-76
2023/05/08 11:22:37;;;;;;;3.88;2.40;;;20.70;98.60;;;;;;5072986;28;20244;-76
2023/05/08 11:25:03;;;;;;;7.60;3.03;;;20.80;96.80;;;;;;5055572;28;20057;-76
2023/05/08 11:27:35;;;;;;;5.68;3.33;;;20.60;98.30;;;;;;5053446;28;20033;-76
2023/05/08 11:30:31;;;;;;;4.35;3.28;;;20.50;99.90;;;;;;5053303;28;20029;-77
2023/05/08 11:33:03;;;;;;;6.95;4.45;;;20.40;99.90;;;;;;5053495;28;20053;-77
2023/05/08 11:35:55;;;;;;;5.00;3.90;;;20.20;99.90;;;;;;5053380;28;20155;-77
2023/05/08 11:38:31;;;;;;;4.38;3.30;;;20.20;99.90;;;;;;5053657;28;20028;-77
2023/05/08 11:41:01;;;;;;;5.38;4.15;;;20.30;99.90;;;;;;5053325;28;20592;-77
2023/05/08 11:43:34;;;;;;;7.22;5.60;;;20.40;99.90;;;;;;5041117;28;20206;-77
2023/05/08 11:46:12;;;;;;;5.50;3.75;;;20.50;99.90;;;;;;5053363;28;20024;-77
2023/05/08 11:48:37;;;;;;;4.97;3.90;;;20.50;99.90;;;;;;5051971;28;20025;-77
2023/05/08 11:51:03;;;;;;;4.03;3.40;;;20.50;99.90;;;;;;5053326;28;20029;-77
2023/05/08 11:53:30;;;;;;;4.25;3.45;;;20.40;99.90;;;;;;5053380;28;20120;-77
2023/05/08 11:55:57;;;;;;;6.70;3.83;;;20.30;99.90;;;;;;5053100;28;20104;-77
2023/05/08 11:58:22;;;;;;;4.75;4.15;;;20.30;99.90;;;;;;5053044;28;20032;-77
2023/05/08 12:00:48;;;;;;;6.10;3.42;;;20.30;99.90;;;;;;5051966;28;20025;-76
2023/05/08 12:03:19;;;;;;;6.03;3.53;;;20.20;99.90;;;;;;5051784;28;20021;-76
2023/05/08 12:05:45;;;;;;;;;;;20.20;99.90;;;;;;5053880;28;20492;-77
2023/05/08 12:08:13;;;;;;;6.00;3.45;;;20.10;99.90;;;;;;5056725;28;19912;-76
2023/05/08 12:10:51;;;;;;;5.35;3.65;;;20.00;99.90;;;;;;5057013;28;20067;-77
2023/05/08 12:13:18;;;;;;;5.00;3.70;;;20.10;99.90;;;;;;5060725;28;20063;-77
2023/05/08 12:15:48;;;;;;;4.70;3.40;;;20.10;99.90;;;;;;5077186;28;20024;-77
2023/05/08 12:18:15;;;;;;;4.55;3.15;;;20.00;99.90;;;;;;5077743;28;20055;-77
2023/05/08 12:20:42;;;;;;;5.63;3.35;;;20.00;99.90;;;;;;5078148;28;20079;-77
2023/05/08 12:23:09;;;;;;;3.22;2.70;;;19.80;99.90;;;;;;5077177;28;20074;-76
2023/05/08 12:25:39;;;;;;;7.22;3.20;;;19.60;97.90;;;;;;5076510;28;20031;-77
2023/05/08 12:28:11;;;;;;;5.13;3.45;;;19.40;98.80;;;;;;5076739;28;20392;-76
2023/05/08 12:30:37;;;;;;;5.63;3.53;;;19.30;99.90;;;;;;5076409;28;20037;-76
2023/05/08 12:33:07;;;;;;;4.68;3.20;;;19.30;99.30;;;;;;5076546;28;20437;-77
2023/05/08 12:35:33;;;;;;;5.20;3.33;;;19.30;99.70;;;;;;5076462;28;20025;-77
2023/05/08 12:38:03;;;;;;;5.22;3.53;;;19.20;99.90;;;;;;5076543;28;20380;-77
2023/05/08 12:40:30;;;;;;;6.20;3.85;;;19.20;99.20;;;;;;5076578;28;20028;-76
2023/05/08 12:42:59;;;;;;;5.25;3.72;;;19.10;99.00;;;;;;5076480;28;20052;-77
2023/05/08 12:45:32;;;;;;;7.07;3.97;;;19.00;99.90;;;;;;5076134;28;20036;-77
2023/05/08 12:47:59;;;;;;;7.32;4.05;;;18.80;99.90;;;;;;5076303;28;20025;-77
2023/05/08 12:50:25;;;;;;;6.35;4.15;;;18.70;99.80;;;;;;5058221;28;20047;-77
2023/05/08 12:52:51;;;;;;;6.57;4.07;;;18.70;99.90;;;;;;5076221;28;20481;-77
2023/05/08 12:55:26;;;;;;;5.75;3.85;;;18.60;99.90;;;;;;5076142;28;20028;-76
2023/05/08 12:58:12;;;;;;;5.93;4.22;;;18.60;99.90;;;;;;5058264;28;20050;-77